Strona główna
METAR-TAF:

METAR-TAF

Lotnisko :

Gove, Australia

Szerokość geograficzna: 12-16-12S, Długość geograficzna: 136-49-06E, wysokość: 62 m

Aktualna obserwacja pogody

Raport powstał 43 minut temu, godzina 10:00 UTC
Wiatr 16 kt od południowo-południowy wschód
Temperatura 24°C
Wilgotność 69%
Ciśnienie 1013 hPa
Widzialność 10 km lub więcej
Rozproszone chmury na wysokości 2300 ft

METAR: YPGV 121000Z AUTO 15016KT 9999 // SCT023 24/18 Q1013

czas: 20:13 (10:43 UTC)

Prognoza

Raport powstał 3 godziny i 34 minut temu, godzina 07:09 UTC
Prognoza ważna od 12 godzina 08 UTC do 12 godzina 20 UTC
Wiatr 17 kt od południowy wschód
Widzialność 10 km lub więcej
Rozproszone chmury na wysokości 3000 ft

TAF: YPGV 120709Z 1208/1220 14017KT 9999 SCT030

Obserwacja i prognoza pogody dla ponad 4000 lotnisk (raport METAR i TAF).

Dostępne stacje oznaczono żółtymi i czerwonymi punktami na mapie.

Najedź kursorem aby zobaczyć nazwę stacji.

Kliknij aby zobaczyć obserwacje i prognozy pogody.

Aby zmienić mapę: kliknij na zielony przycisk z czarnym krzyżykiem, aby powiększyć; na zielony przycisk z myślnikiem, aby pomniejszyć; na zielone strzałki, aby przejść do map sąsiednich.


METAR-TAF: